createdAt,value
2023-02-02T00:00:44.654Z,64.33
2023-02-02T00:03:14.821Z,63.42
2023-02-02T00:05:49.534Z,63.23
2023-02-02T00:08:24.233Z,62.70
2023-02-02T00:10:54.551Z,62.98
2023-02-02T00:13:24.782Z,62.73
2023-02-02T00:15:56.083Z,62.11
2023-02-02T00:18:26.496Z,62.71
2023-02-02T00:20:56.766Z,62.03
2023-02-02T00:23:29.524Z,61.89
2023-02-02T00:25:59.830Z,61.93
2023-02-02T00:28:30.095Z,61.67
2023-02-02T00:31:00.426Z,61.35
2023-02-02T00:33:30.875Z,61.15
2023-02-02T00:36:01.143Z,61.26
2023-02-02T00:38:38.067Z,60.52
2023-02-02T00:41:08.769Z,61.14
2023-02-02T00:43:39.080Z,61.25
2023-02-02T00:46:06.813Z,60.87
2023-02-02T00:48:37.074Z,61.79
2023-02-02T00:51:07.606Z,61.55
2023-02-02T00:53:42.682Z,62.15
2023-02-02T00:56:21.825Z,60.90
2023-02-02T00:58:52.197Z,60.28
2023-02-02T01:01:23.867Z,60.68
2023-02-02T01:03:54.464Z,60.21
2023-02-02T01:06:24.782Z,60.52
2023-02-02T01:08:57.591Z,61.17
2023-02-02T01:11:28.590Z,61.90
2023-02-02T01:13:58.659Z,61.49
2023-02-02T01:16:29.049Z,61.87
2023-02-02T01:18:59.582Z,62.84
2023-02-02T01:21:29.864Z,62.32
2023-02-02T01:24:02.811Z,61.59
2023-02-02T01:26:33.152Z,62.01
2023-02-02T01:29:03.990Z,62.06
2023-02-02T01:31:34.320Z,61.81
2023-02-02T01:34:04.620Z,62.35
2023-02-02T01:36:34.719Z,62.67
2023-02-02T01:39:07.699Z,61.92
2023-02-02T01:41:38.104Z,62.52
2023-02-02T01:44:29.538Z,62.64
2023-02-02T01:46:59.693Z,61.88
2023-02-02T01:49:30.390Z,61.87
2023-02-02T01:52:03.540Z,61.43
2023-02-02T01:54:38.583Z,61.32
2023-02-02T01:57:12.219Z,60.78
2023-02-02T01:59:44.823Z,59.67
2023-02-02T02:02:16.035Z,59.42
2023-02-02T02:04:46.861Z,59.09
2023-02-02T02:07:17.093Z,58.49
2023-02-02T02:09:50.567Z,58.60
2023-02-02T02:12:20.975Z,58.48
2023-02-02T02:15:06.484Z,58.65
2023-02-02T02:17:54.201Z,58.80
2023-02-02T02:21:07.431Z,59.37
2023-02-02T02:24:37.203Z,58.65
2023-02-02T02:27:31.429Z,59.29
2023-02-02T02:30:39.368Z,59.94
2023-02-02T02:33:17.004Z,59.61
2023-02-02T02:35:59.607Z,59.66
2023-02-02T02:38:38.531Z,59.89
2023-02-02T02:41:15.110Z,59.91
2023-02-02T02:43:50.217Z,60.35
2023-02-02T02:46:20.764Z,60.54
2023-02-02T02:48:53.986Z,59.69
2023-02-02T02:51:44.150Z,59.58
2023-02-02T02:54:15.799Z,59.54
2023-02-02T02:57:00.960Z,59.86
2023-02-02T02:59:40.598Z,59.54
2023-02-02T03:02:29.069Z,58.78
2023-02-02T03:05:19.815Z,58.74
2023-02-02T03:07:54.958Z,58.73
2023-02-02T03:10:30.574Z,59.47
2023-02-02T03:13:01.349Z,59.21
2023-02-02T03:15:31.777Z,58.99
2023-02-02T03:18:02.375Z,59.28
2023-02-02T03:20:35.372Z,59.17
2023-02-02T03:23:05.505Z,59.62
2023-02-02T03:25:35.669Z,59.30
2023-02-02T03:28:07.342Z,59.42
2023-02-02T03:30:38.188Z,58.82
2023-02-02T03:33:09.790Z,59.08
2023-02-02T03:35:42.630Z,59.60
2023-02-02T03:38:12.837Z,59.16
2023-02-02T03:40:43.513Z,59.11
2023-02-02T03:43:13.939Z,59.75
2023-02-02T03:45:44.117Z,60.52
2023-02-02T03:48:14.243Z,60.98
2023-02-02T03:50:47.210Z,60.89
2023-02-02T03:53:17.490Z,60.58
2023-02-02T03:55:47.846Z,60.43
2023-02-02T03:58:18.523Z,60.17
2023-02-02T04:00:48.898Z,60.25
2023-02-02T04:03:19.116Z,60.93
2023-02-02T04:05:55.012Z,60.55
2023-02-02T04:08:25.187Z,61.03
2023-02-02T04:10:55.676Z,60.86
2023-02-02T04:13:25.926Z,61.43
2023-02-02T04:16:00.380Z,61.80
2023-02-02T04:18:31.435Z,61.58
2023-02-02T04:21:05.014Z,61.00
2023-02-02T04:23:35.647Z,61.60
2023-02-02T04:26:06.933Z,61.73
2023-02-02T04:28:39.739Z,61.28
2023-02-02T04:31:13.115Z,61.51
2023-02-02T04:33:43.295Z,61.84
2023-02-02T04:36:16.368Z,61.81
2023-02-02T04:38:46.605Z,62.23
2023-02-02T04:41:18.879Z,61.95
2023-02-02T04:43:49.167Z,62.02
2023-02-02T04:46:19.795Z,62.16
2023-02-02T04:48:52.083Z,62.30
2023-02-02T04:51:25.119Z,62.57
2023-02-02T04:53:55.408Z,62.93
2023-02-02T04:56:25.883Z,62.95
2023-02-02T04:58:59.137Z,62.49
2023-02-02T05:01:31.066Z,62.66
2023-02-02T05:04:01.419Z,63.11
2023-02-02T05:06:34.313Z,63.47
2023-02-02T05:09:04.486Z,63.48
2023-02-02T05:11:34.708Z,63.27
2023-02-02T05:14:05.745Z,64.25
2023-02-02T05:16:35.977Z,63.73
2023-02-02T05:19:06.532Z,64.48
2023-02-02T05:21:39.378Z,64.25
2023-02-02T05:24:10.158Z,64.18
2023-02-02T05:26:40.681Z,63.78
2023-02-02T05:29:11.049Z,63.43
2023-02-02T05:31:41.464Z,64.09
2023-02-02T05:34:11.791Z,63.85
2023-02-02T05:36:44.728Z,63.63
2023-02-02T05:39:15.366Z,63.95
2023-02-02T05:41:45.602Z,63.75
2023-02-02T05:44:17.086Z,64.06
2023-02-02T05:46:47.203Z,63.88
2023-02-02T05:49:17.664Z,63.78
2023-02-02T05:51:52.901Z,63.80
2023-02-02T05:54:23.301Z,63.73
2023-02-02T05:56:56.203Z,64.23
2023-02-02T05:59:27.197Z,63.78
2023-02-02T06:01:57.436Z,64.05
2023-02-02T06:04:27.710Z,63.77
2023-02-02T06:07:00.557Z,64.35
2023-02-02T06:09:31.127Z,63.93
2023-02-02T06:12:01.380Z,64.12
2023-02-02T06:14:31.778Z,64.09
2023-02-02T06:17:01.939Z,64.97
2023-02-02T06:19:32.160Z,64.54
2023-02-02T06:22:05.294Z,64.29
2023-02-02T06:24:35.607Z,64.38
2023-02-02T06:27:05.877Z,64.50
2023-02-02T06:29:36.761Z,64.40
2023-02-02T06:32:07.449Z,64.28
2023-02-02T06:34:37.800Z,64.40
2023-02-02T06:37:10.754Z,64.78
2023-02-02T06:39:41.227Z,65.39
2023-02-02T06:42:20.860Z,64.85
2023-02-02T06:44:52.359Z,64.94
2023-02-02T06:47:22.775Z,65.19
2023-02-02T06:49:53.131Z,65.69
2023-02-02T06:52:26.027Z,65.42
2023-02-02T06:54:56.299Z,64.92
2023-02-02T06:57:26.762Z,64.15
2023-02-02T06:59:57.035Z,62.66
2023-02-02T07:02:27.409Z,61.84
2023-02-02T07:04:57.815Z,61.22
2023-02-02T07:07:31.225Z,61.14
2023-02-02T07:10:01.720Z,62.51
2023-02-02T07:12:34.410Z,62.36
2023-02-02T07:15:04.953Z,62.17
2023-02-02T07:17:35.193Z,62.69
2023-02-02T07:20:05.716Z,62.37
2023-02-02T07:22:41.312Z,61.80
2023-02-02T07:25:12.008Z,63.07
2023-02-02T07:27:43.329Z,62.21
2023-02-02T07:30:16.150Z,61.92
2023-02-02T07:32:49.849Z,61.65
2023-02-02T07:35:20.523Z,61.67
2023-02-02T07:37:57.634Z,60.95
2023-02-02T07:40:27.995Z,59.90
2023-02-02T07:43:00.813Z,58.47
2023-02-02T07:45:31.356Z,58.06
2023-02-02T07:48:03.019Z,57.34
2023-02-02T07:50:33.899Z,58.55
2023-02-02T07:53:06.850Z,58.21
2023-02-02T07:55:37.928Z,56.99
2023-02-02T07:58:10.461Z,56.00
2023-02-02T08:00:40.752Z,55.50
2023-02-02T08:03:14.023Z,55.23
2023-02-02T08:05:44.354Z,54.56
2023-02-02T08:08:17.410Z,55.03
2023-02-02T08:10:53.643Z,54.73
2023-02-02T08:13:24.382Z,54.21
2023-02-02T08:15:54.857Z,53.24
2023-02-02T08:18:25.893Z,53.39
2023-02-02T08:20:56.177Z,52.84
2023-02-02T08:23:29.456Z,52.78
2023-02-02T08:26:09.312Z,51.76
2023-02-02T08:28:40.039Z,52.04
2023-02-02T08:31:12.754Z,52.82
2023-02-02T08:33:43.120Z,53.50
2023-02-02T08:36:15.360Z,53.03
2023-02-02T08:38:49.027Z,52.14
2023-02-02T08:41:21.235Z,53.12
2023-02-02T08:43:52.137Z,52.39
2023-02-02T08:46:23.742Z,51.98
2023-02-02T08:48:54.055Z,53.02
2023-02-02T08:51:24.416Z,53.70
2023-02-02T08:53:57.493Z,52.81
2023-02-02T08:56:27.704Z,52.98
2023-02-02T08:59:00.719Z,52.33
2023-02-02T09:01:32.582Z,51.61
2023-02-02T09:04:05.472Z,50.91
2023-02-02T09:06:37.916Z,50.75
2023-02-02T09:09:15.773Z,50.49
2023-02-02T09:11:47.039Z,49.73
2023-02-02T09:14:17.628Z,48.92
2023-02-02T09:16:47.828Z,47.89
2023-02-02T09:19:18.586Z,47.99
2023-02-02T09:21:48.758Z,48.54
2023-02-02T09:24:22.402Z,47.97
2023-02-02T09:26:52.669Z,46.90
2023-02-02T09:29:22.915Z,47.12
2023-02-02T09:31:53.553Z,48.28
2023-02-02T09:34:28.598Z,47.67
2023-02-02T09:36:58.803Z,48.07
2023-02-02T09:39:31.816Z,48.49
2023-02-02T09:42:45.757Z,48.69
2023-02-02T09:45:23.720Z,48.05
2023-02-02T09:48:00.605Z,48.56
2023-02-02T09:50:51.248Z,47.97
2023-02-02T09:53:28.704Z,47.51
2023-02-02T09:56:04.728Z,47.25
2023-02-02T09:58:39.283Z,47.48
2023-02-02T10:01:16.248Z,47.14
2023-02-02T10:03:57.180Z,46.24
2023-02-02T10:06:35.814Z,46.22
2023-02-02T10:09:18.576Z,45.22
2023-02-02T10:11:57.748Z,45.51
2023-02-02T10:14:32.609Z,44.45
2023-02-02T10:17:31.506Z,45.37
2023-02-02T10:20:09.040Z,45.23
2023-02-02T10:22:40.516Z,45.17
2023-02-02T10:25:15.591Z,45.27
2023-02-02T10:27:58.599Z,45.49
2023-02-02T10:30:39.293Z,44.51
2023-02-02T10:33:14.147Z,45.40
2023-02-02T10:35:49.032Z,45.05
2023-02-02T10:38:26.574Z,45.55
2023-02-02T10:41:05.544Z,45.76
2023-02-02T10:44:09.306Z,46.47
2023-02-02T10:46:43.166Z,46.86
2023-02-02T10:49:24.669Z,46.30
2023-02-02T10:52:00.894Z,46.61
2023-02-02T10:54:55.860Z,46.86
2023-02-02T10:57:45.763Z,47.20
2023-02-02T11:00:25.089Z,48.44
2023-02-02T11:02:56.589Z,48.46
2023-02-02T11:05:44.560Z,48.48
2023-02-02T11:08:17.374Z,48.72
2023-02-02T11:10:49.349Z,48.49
2023-02-02T11:13:29.972Z,48.17
2023-02-02T11:16:41.457Z,48.01
2023-02-02T11:19:30.562Z,48.03
2023-02-02T11:22:02.406Z,47.49
2023-02-02T11:24:36.852Z,47.12
2023-02-02T11:27:15.509Z,47.39
2023-02-02T11:29:49.340Z,47.02
2023-02-02T11:32:30.386Z,46.99
2023-02-02T11:35:24.004Z,46.95
2023-02-02T11:38:01.438Z,47.28
2023-02-02T11:40:35.432Z,47.28
2023-02-02T11:43:09.069Z,47.12
2023-02-02T11:45:41.488Z,47.48
2023-02-02T11:48:20.643Z,47.87
2023-02-02T11:50:52.627Z,47.72
2023-02-02T11:53:27.918Z,47.84
2023-02-02T11:56:00.491Z,47.62
2023-02-02T11:58:31.946Z,47.45
2023-02-02T12:01:05.299Z,47.15
2023-02-02T12:03:41.770Z,46.88
2023-02-02T12:06:23.616Z,46.56
2023-02-02T12:08:58.490Z,46.98
2023-02-02T12:11:43.415Z,47.09
2023-02-02T12:14:25.724Z,46.47
2023-02-02T12:17:09.524Z,46.40
2023-02-02T12:20:09.895Z,46.47
2023-02-02T12:23:03.092Z,46.64
2023-02-02T12:25:56.555Z,46.77
2023-02-02T12:28:47.273Z,46.65
2023-02-02T12:31:26.762Z,47.44
2023-02-02T12:34:04.555Z,47.27
2023-02-02T12:36:53.421Z,47.55
2023-02-02T12:39:32.719Z,47.65
2023-02-02T12:42:28.049Z,48.48
2023-02-02T12:45:23.237Z,47.88
2023-02-02T12:48:06.471Z,48.04
2023-02-02T12:50:44.094Z,47.81
2023-02-02T12:53:32.088Z,47.33
2023-02-02T12:56:12.153Z,47.46
2023-02-02T12:58:48.202Z,46.90
2023-02-02T13:01:40.407Z,46.49
2023-02-02T13:04:26.588Z,46.55
2023-02-02T13:07:34.355Z,47.20
2023-02-02T13:10:14.921Z,47.25
2023-02-02T13:12:50.815Z,47.37
2023-02-02T13:15:24.325Z,47.79
2023-02-02T13:17:57.922Z,47.85
2023-02-02T13:20:39.030Z,48.39
2023-02-02T13:23:16.508Z,48.17
2023-02-02T13:25:53.907Z,48.09
2023-02-02T13:28:35.722Z,48.32
2023-02-02T13:31:14.216Z,48.74
2023-02-02T13:33:52.874Z,48.79
2023-02-02T13:36:30.004Z,48.68
2023-02-02T13:39:04.988Z,49.33
2023-02-02T13:41:39.658Z,48.81
2023-02-02T13:44:16.401Z,49.29
2023-02-02T13:46:54.502Z,48.18
2023-02-02T13:49:31.182Z,48.28
2023-02-02T13:52:16.460Z,48.80
2023-02-02T13:55:19.286Z,48.76
2023-02-02T13:58:17.455Z,48.93
2023-02-02T14:00:51.263Z,48.85
2023-02-02T14:03:33.815Z,49.20
2023-02-02T14:06:13.540Z,49.38
2023-02-02T14:08:49.782Z,49.15
2023-02-02T14:11:24.740Z,49.04
2023-02-02T14:14:14.857Z,49.25
2023-02-02T14:16:50.831Z,49.24
2023-02-02T14:19:55.286Z,49.47
2023-02-02T14:22:45.145Z,49.77
2023-02-02T14:25:48.822Z,49.79
2023-02-02T14:28:50.934Z,49.76
2023-02-02T14:31:55.406Z,50.08
2023-02-02T14:34:43.685Z,49.69
2023-02-02T14:37:34.865Z,49.73
2023-02-02T14:40:29.743Z,49.77
2023-02-02T14:43:24.804Z,49.11
2023-02-02T14:46:31.568Z,49.44
2023-02-02T14:49:17.930Z,50.16
2023-02-02T14:51:55.368Z,49.42
2023-02-02T14:54:30.562Z,49.20
2023-02-02T14:57:05.696Z,48.77
2023-02-02T14:59:39.952Z,48.48
2023-02-02T15:02:21.999Z,48.25
2023-02-02T15:04:55.292Z,48.82
2023-02-02T15:07:56.028Z,48.75
2023-02-02T15:10:57.011Z,48.50
2023-02-02T15:13:30.094Z,49.17
2023-02-02T15:16:09.541Z,48.86
2023-02-02T15:18:47.237Z,49.46
2023-02-02T15:21:24.310Z,49.05
2023-02-02T15:23:57.252Z,49.58
2023-02-02T15:26:32.892Z,49.55
2023-02-02T15:29:08.325Z,50.01
2023-02-02T15:31:44.751Z,50.50
2023-02-02T15:34:20.953Z,50.82
2023-02-02T15:36:58.138Z,51.22
2023-02-02T15:39:33.804Z,50.90
2023-02-02T15:42:29.126Z,51.10
2023-02-02T15:44:59.370Z,51.12
2023-02-02T15:47:34.878Z,51.42
2023-02-02T15:50:07.477Z,51.94
2023-02-02T15:52:51.654Z,51.96
2023-02-02T15:55:25.448Z,52.45
2023-02-02T15:57:56.222Z,52.60
2023-02-02T16:00:29.276Z,52.60
2023-02-02T16:03:05.738Z,52.64
2023-02-02T16:05:51.616Z,53.47
2023-02-02T16:08:28.835Z,53.76
2023-02-02T16:11:10.165Z,53.95
2023-02-02T16:13:43.606Z,54.05
2023-02-02T16:16:28.106Z,54.24
2023-02-02T16:19:07.092Z,54.47
2023-02-02T16:21:40.789Z,54.62
2023-02-02T16:24:18.600Z,54.67
2023-02-02T16:26:49.154Z,54.66
2023-02-02T16:29:20.363Z,54.85
2023-02-02T16:31:52.702Z,54.93
2023-02-02T16:34:47.870Z,55.11
2023-02-02T16:37:22.363Z,55.99
2023-02-02T16:39:55.323Z,55.74
2023-02-02T16:42:28.433Z,55.87
2023-02-02T16:45:00.124Z,56.00
2023-02-02T16:47:40.657Z,55.08
2023-02-02T16:50:29.150Z,55.58
2023-02-02T16:53:04.043Z,55.82
2023-02-02T16:55:49.870Z,56.66
2023-02-02T16:58:24.361Z,56.49
2023-02-02T17:01:14.871Z,56.47
2023-02-02T17:03:53.869Z,56.68
2023-02-02T17:06:51.446Z,57.07
2023-02-02T17:09:36.591Z,57.09
2023-02-02T17:12:33.819Z,57.21
2023-02-02T17:15:06.228Z,56.45
2023-02-02T17:17:36.672Z,57.03
2023-02-02T17:20:07.966Z,56.84
2023-02-02T17:22:42.697Z,56.65
2023-02-02T17:25:18.108Z,56.71
2023-02-02T17:27:51.659Z,56.93
2023-02-02T17:30:22.943Z,56.86
2023-02-02T17:32:53.461Z,57.32
2023-02-02T17:35:27.038Z,56.90
2023-02-02T17:37:57.978Z,56.82
2023-02-02T17:40:28.562Z,57.12
2023-02-02T17:43:02.499Z,56.91
2023-02-02T17:45:35.303Z,56.92
2023-02-02T17:48:06.437Z,56.70
2023-02-02T17:50:36.968Z,56.50
2023-02-02T17:53:08.521Z,57.05
2023-02-02T17:55:42.059Z,57.34
2023-02-02T17:58:17.749Z,56.68
2023-02-02T18:00:49.911Z,56.85
2023-02-02T18:03:24.213Z,56.67
2023-02-02T18:05:57.713Z,57.05
2023-02-02T18:08:28.368Z,56.94
2023-02-02T18:10:59.739Z,56.97
2023-02-02T18:13:32.799Z,57.32
2023-02-02T18:16:03.319Z,56.86
2023-02-02T18:18:34.070Z,57.09
2023-02-02T18:21:04.507Z,57.14
2023-02-02T18:23:35.133Z,57.41
2023-02-02T18:26:12.737Z,57.39
2023-02-02T18:28:48.839Z,57.58
2023-02-02T18:31:24.054Z,57.39
2023-02-02T18:33:55.412Z,57.46
2023-02-02T18:36:26.134Z,58.10
2023-02-02T18:38:56.752Z,57.94
2023-02-02T18:41:27.239Z,57.90
2023-02-02T18:44:00.463Z,58.04
2023-02-02T18:46:33.948Z,58.13
2023-02-02T18:49:04.611Z,58.10
2023-02-02T18:51:34.923Z,58.26
2023-02-02T18:54:10.483Z,58.36
2023-02-02T18:56:43.929Z,58.39
2023-02-02T18:59:17.376Z,58.50
2023-02-02T19:01:48.175Z,59.02
2023-02-02T19:04:19.359Z,59.28
2023-02-02T19:07:05.582Z,59.36
2023-02-02T19:09:35.872Z,59.51
2023-02-02T19:12:14.939Z,59.19
2023-02-02T19:14:48.429Z,59.12
2023-02-02T19:17:25.001Z,59.05
2023-02-02T19:20:21.292Z,59.46
2023-02-02T19:22:53.213Z,59.37
2023-02-02T19:25:24.216Z,59.79
2023-02-02T19:27:54.596Z,60.26
2023-02-02T19:30:28.133Z,60.07
2023-02-02T19:32:58.958Z,60.21
2023-02-02T19:35:32.308Z,60.43
2023-02-02T19:38:05.637Z,60.51
2023-02-02T19:40:44.300Z,60.09
2023-02-02T19:43:29.683Z,60.25
2023-02-02T19:46:03.379Z,60.20
2023-02-02T19:48:39.244Z,60.62
2023-02-02T19:51:30.029Z,60.77
2023-02-02T19:54:06.987Z,61.08
2023-02-02T19:56:41.582Z,61.44
2023-02-02T19:59:19.171Z,61.39
2023-02-02T20:01:52.586Z,61.05
2023-02-02T20:04:23.053Z,61.14
2023-02-02T20:06:59.487Z,61.77
2023-02-02T20:09:36.636Z,62.09
2023-02-02T20:12:24.420Z,62.23
2023-02-02T20:14:56.440Z,62.46
2023-02-02T20:17:37.392Z,63.16
2023-02-02T20:20:22.344Z,63.13
2023-02-02T20:22:53.159Z,63.22
2023-02-02T20:25:23.688Z,63.50
2023-02-02T20:27:55.349Z,63.77
2023-02-02T20:30:28.374Z,63.67
2023-02-02T20:33:04.676Z,63.93
2023-02-02T20:35:39.787Z,64.21
2023-02-02T20:38:21.000Z,64.50
2023-02-02T20:40:52.227Z,64.37
2023-02-02T20:43:23.180Z,64.51
2023-02-02T20:45:53.780Z,64.64
2023-02-02T20:48:27.876Z,65.07
2023-02-02T20:50:59.532Z,65.30
2023-02-02T20:53:29.988Z,65.85
2023-02-02T20:56:02.246Z,65.84
2023-02-02T20:58:33.008Z,66.30
2023-02-02T21:01:05.624Z,66.39
2023-02-02T21:03:38.838Z,66.26
2023-02-02T21:06:09.148Z,66.40
2023-02-02T21:08:40.317Z,66.56
2023-02-02T21:11:12.664Z,66.75
2023-02-02T21:13:42.952Z,66.99
2023-02-02T21:16:13.376Z,65.48
2023-02-02T21:18:47.457Z,65.29
2023-02-02T21:21:19.016Z,65.17
2023-02-02T21:23:51.642Z,65.20
2023-02-02T21:26:27.261Z,64.88
2023-02-02T21:28:57.739Z,64.92
2023-02-02T21:31:35.155Z,64.97
2023-02-02T21:34:09.230Z,64.83
2023-02-02T21:36:40.349Z,65.30
2023-02-02T21:39:23.019Z,65.21
2023-02-02T21:41:57.882Z,65.08
2023-02-02T21:44:31.182Z,65.84
2023-02-02T21:47:04.105Z,65.46
2023-02-02T21:49:41.461Z,66.37
2023-02-02T21:52:18.124Z,66.70
2023-02-02T21:54:49.245Z,66.75
2023-02-02T21:57:24.280Z,66.23
2023-02-02T21:59:58.239Z,66.54
2023-02-02T22:02:44.103Z,66.92
2023-02-02T22:05:22.275Z,66.52
2023-02-02T22:07:53.780Z,66.32
2023-02-02T22:10:42.865Z,66.39
2023-02-02T22:13:18.658Z,66.76
2023-02-02T22:15:50.119Z,66.66
2023-02-02T22:18:23.004Z,67.09
2023-02-02T22:20:57.389Z,66.97
2023-02-02T22:23:30.598Z,66.96
2023-02-02T22:26:01.438Z,67.30
2023-02-02T22:28:39.968Z,67.75
2023-02-02T22:31:10.482Z,67.59
2023-02-02T22:33:40.707Z,67.79
2023-02-02T22:36:13.758Z,68.32
2023-02-02T22:38:44.027Z,68.12
2023-02-02T22:41:14.253Z,68.16
2023-02-02T22:43:44.678Z,68.52
2023-02-02T22:46:14.856Z,68.40
2023-02-02T22:48:45.199Z,68.54
2023-02-02T22:51:18.349Z,68.77
2023-02-02T22:53:51.480Z,68.74
2023-02-02T22:56:21.836Z,68.21
2023-02-02T22:58:52.051Z,68.60
2023-02-02T23:01:22.236Z,69.06
2023-02-02T23:03:52.728Z,68.45
2023-02-02T23:06:25.497Z,68.63
2023-02-02T23:08:55.748Z,68.67
2023-02-02T23:11:25.924Z,68.45
2023-02-02T23:13:56.356Z,67.75
2023-02-02T23:16:26.768Z,68.17
2023-02-02T23:18:57.411Z,68.11
2023-02-02T23:21:30.455Z,68.62
2023-02-02T23:24:00.666Z,68.60
2023-02-02T23:26:30.832Z,68.47
2023-02-02T23:29:01.774Z,68.84
2023-02-02T23:31:32.018Z,68.44
2023-02-02T23:34:02.334Z,67.99
2023-02-02T23:36:35.110Z,67.06
2023-02-02T23:39:05.449Z,67.04
2023-02-02T23:41:35.733Z,66.93
2023-02-02T23:44:06.114Z,67.00
2023-02-02T23:46:36.464Z,66.65
2023-02-02T23:49:06.703Z,66.44
2023-02-02T23:51:40.281Z,66.50
2023-02-02T23:54:11.877Z,66.47
2023-02-02T23:56:42.895Z,66.25
2023-02-02T23:59:13.261Z,66.65
